Time;durP1;ratioP1;P1;durP2;ratioP2;P2;SDS_P1;SDS_P2;PMS_P1;PMS_P2;Temp;Humidity;BMP_temperature;BMP_pressure;BME280_temperature;BME280_humidity;BME280_pressure;Samples;Min_cycle;Max_cycle;Signal;HPM_P1;HPM_P2
2023/09/07 00:01:06;;;;;;;5.03;2.47;;;;;;;20.29;49.82;100250.84;4465649;32;33738;-71
2023/09/07 00:03:34;;;;;;;2.95;1.50;;;;;;;20.28;49.93;100247.28;4463633;32;33513;-71
2023/09/07 00:06:02;;;;;;;2.92;1.85;;;;;;;20.39;49.54;100246.16;4464976;32;33907;-71
2023/09/07 00:08:30;;;;;;;3.65;2.30;;;;;;;20.25;49.80;100250.34;4466147;32;35542;-72
2023/09/07 00:11:09;;;;;;;4.32;2.33;;;;;;;20.27;49.77;100247.47;4466975;32;33827;-72
2023/09/07 00:13:36;;;;;;;4.12;2.33;;;;;;;20.13;50.01;100247.09;4459837;32;33064;-72
2023/09/07 00:16:05;;;;;;;4.37;2.65;;;;;;;20.06;50.14;100253.31;4466179;32;33756;-71
2023/09/07 00:18:33;;;;;;;2.50;1.52;;;;;;;20.23;49.81;100239.63;4467668;32;34177;-72
2023/09/07 00:21:01;;;;;;;4.53;1.87;;;;;;;20.29;49.71;100245.41;4467899;32;34667;-71
2023/09/07 00:23:29;;;;;;;4.15;1.87;;;;;;;20.20;49.88;100250.84;4466438;32;33476;-71
2023/09/07 00:25:57;;;;;;;4.78;1.65;;;;;;;20.08;50.06;100248.59;4464673;32;35017;-71
2023/09/07 00:28:24;;;;;;;3.85;2.30;;;;;;;20.17;49.73;100245.72;4467420;32;33991;-71
2023/09/07 00:30:52;;;;;;;2.87;1.67;;;;;;;19.93;49.89;100248.34;4467875;32;33973;-71
2023/09/07 00:33:20;;;;;;;2.95;1.67;;;;;;;20.19;49.39;100251.88;4468055;32;33027;-72
2023/09/07 00:35:47;;;;;;;6.22;2.72;;;;;;;19.85;50.03;100249.16;4466869;32;34621;-72
2023/09/07 00:38:15;;;;;;;4.43;1.98;;;;;;;19.84;50.26;100252.03;4466955;32;34048;-72
2023/09/07 00:40:45;;;;;;;5.20;2.47;;;;;;;20.14;49.56;100256.09;4467549;32;34779;-72
2023/09/07 00:43:12;;;;;;;5.20;2.35;;;;;;;20.09;49.74;100256.56;4467866;32;33171;-72
2023/09/07 00:45:40;;;;;;;3.12;1.48;;;;;;;19.96;50.00;100251.56;4463253;32;34710;-72
2023/09/07 00:48:09;;;;;;;4.80;1.95;;;;;;;19.93;49.98;100254.63;4452783;32;34162;-72
2023/09/07 00:50:36;;;;;;;5.70;2.10;;;;;;;19.99;49.82;100255.84;4452275;32;33532;-72
2023/09/07 00:53:06;;;;;;;2.90;2.10;;;;;;;19.89;49.97;100244.25;4462694;32;34108;-72
2023/09/07 00:55:34;;;;;;;4.70;1.98;;;;;;;19.73;50.44;100243.16;4464614;32;36238;-72
2023/09/07 00:58:05;;;;;;;3.53;1.90;;;;;;;19.75;50.24;100234.84;4465167;32;34852;-72
2023/09/07 01:00:34;;;;;;;4.10;2.47;;;;;;;19.91;50.00;100248.50;4464710;32;33968;-72
2023/09/07 01:03:02;;;;;;;3.92;1.85;;;;;;;19.99;49.74;100253.13;4460431;32;33656;-72
2023/09/07 01:05:41;;;;;;;3.90;2.22;;;;;;;20.10;49.54;100254.72;4463784;32;32489;-73
2023/09/07 01:08:17;;;;;;;4.57;1.70;;;;;;;20.11;49.49;100248.25;4467168;32;33988;-72
2023/09/07 01:10:44;;;;;;;5.93;2.58;;;;;;;20.08;49.63;100243.16;4458888;32;34345;-72
2023/09/07 01:13:12;;;;;;;2.90;1.77;;;;;;;20.08;49.71;100251.28;4465288;32;34111;-72
2023/09/07 01:15:40;;;;;;;2.33;1.85;;;;;;;20.09;49.77;100248.41;4464700;32;33648;-72
2023/09/07 01:18:08;;;;;;;4.78;2.65;;;;;;;20.05;49.94;100243.47;4461099;32;34369;-72
2023/09/07 01:20:52;;;;;;;3.40;1.87;;;;;;;20.03;49.99;100254.50;4463638;32;34849;-72
2023/09/07 01:23:20;;;;;;;4.85;2.62;;;;;;;20.07;49.87;100241.47;4466814;32;34741;-72
2023/09/07 01:25:48;;;;;;;3.10;2.10;;;;;;;19.97;50.15;100244.31;4463549;32;33939;-73
2023/09/07 01:28:16;;;;;;;7.07;3.35;;;;;;;19.90;50.17;100245.94;4438722;32;33645;-72
2023/09/07 01:30:45;;;;;;;4.50;2.50;;;;;;;19.91;50.09;100237.66;4450127;32;35170;-71
2023/09/07 01:33:13;;;;;;;6.68;2.78;;;;;;;19.87;50.17;100246.28;4449415;32;34397;-72
2023/09/07 01:35:41;;;;;;;2.75;1.52;;;;;;;19.77;50.34;100241.84;4448010;32;33866;-72
2023/09/07 01:38:09;;;;;;;1.95;1.20;;;;;;;19.80;50.22;100246.06;4449013;32;35191;-72
2023/09/07 01:40:36;;;;;;;2.90;2.03;;;;;;;19.75;50.32;100245.72;4449726;32;33484;-72
2023/09/07 01:43:04;;;;;;;2.47;1.73;;;;;;;19.85;50.03;100237.44;4451104;32;33215;-71
2023/09/07 01:45:32;;;;;;;5.20;2.37;;;;;;;19.76;50.22;100244.69;4432835;32;33372;-72
2023/09/07 01:47:59;;;;;;;3.62;1.85;;;;;;;19.78;50.15;100246.25;4448350;32;35755;-72
2023/09/07 01:50:28;;;;;;;3.45;2.20;;;;;;;19.78;50.20;100253.53;4435540;32;33686;-72
2023/09/07 01:52:56;;;;;;;3.20;1.90;;;;;;;19.70;50.33;100248.91;4443681;32;33224;-71
2023/09/07 01:55:23;;;;;;;5.35;2.62;;;;;;;19.67;50.36;100246.50;4446030;32;33287;-72
2023/09/07 01:57:51;;;;;;;5.53;2.85;;;;;;;19.46;50.88;100248.75;4450010;32;33947;-71
2023/09/07 02:00:19;;;;;;;3.87;1.25;;;;;;;19.42;51.19;100252.78;4449802;32;33530;-72
2023/09/07 02:02:47;;;;;;;1.50;1.33;;;;;;;19.43;51.09;100255.34;4450301;32;34628;-71
2023/09/07 02:05:14;;;;;;;4.95;2.65;;;;;;;19.62;50.45;100254.28;4451774;32;34965;-72
2023/09/07 02:07:43;;;;;;;3.50;2.00;;;;;;;19.47;50.86;100248.56;4466662;32;34041;-73
2023/09/07 02:10:10;;;;;;;3.97;1.62;;;;;;;19.51;50.78;100251.81;4467325;32;33715;-72
2023/09/07 02:12:38;;;;;;;2.80;1.77;;;;;;;19.52;50.69;100257.09;4458243;32;33010;-72
2023/09/07 02:15:06;;;;;;;2.67;1.75;;;;;;;19.67;50.27;100251.94;4462360;32;34802;-72
2023/09/07 02:17:34;;;;;;;4.28;2.37;;;;;;;19.60;50.51;100250.00;4467388;32;34326;-73
2023/09/07 02:20:07;;;;;;;4.87;2.47;;;;;;;19.62;50.38;100253.44;4467500;32;34966;-72
2023/09/07 02:22:36;;;;;;;5.47;2.33;;;;;;;19.63;50.32;100255.13;4467601;32;34606;-72
2023/09/07 02:25:05;;;;;;;4.22;2.22;;;;;;;19.68;50.06;100250.94;4467887;32;33547;-72
2023/09/07 02:27:33;;;;;;;4.30;2.33;;;;;;;19.50;50.48;100255.56;4467916;32;35335;-72
2023/09/07 02:30:03;;;;;;;5.43;2.15;;;;;;;19.69;50.00;100249.09;4468056;32;33427;-72
2023/09/07 02:32:32;;;;;;;4.37;2.15;;;;;;;19.73;49.96;100256.72;4468850;32;34801;-71
2023/09/07 02:34:59;;;;;;;4.07;1.98;;;;;;;19.78;49.70;100259.81;4467815;32;33875;-72
2023/09/07 02:37:27;;;;;;;6.82;2.58;;;;;;;19.66;50.02;100257.53;4468088;32;34036;-72
2023/09/07 02:39:55;;;;;;;5.55;2.55;;;;;;;19.58;50.16;100252.88;4467270;32;33960;-72
2023/09/07 02:42:24;;;;;;;4.55;2.42;;;;;;;19.46;50.38;100259.59;4468441;32;34276;-72
2023/09/07 02:44:52;;;;;;;6.72;2.75;;;;;;;19.47;50.24;100255.88;4467844;32;33572;-71
2023/09/07 02:47:19;;;;;;;5.32;3.12;;;;;;;19.38;50.52;100260.38;4468259;32;34036;-72
2023/09/07 02:49:47;;;;;;;7.35;2.37;;;;;;;19.40;50.57;100260.25;4460191;32;33515;-72
2023/09/07 02:52:15;;;;;;;2.45;1.25;;;;;;;19.30;50.90;100266.63;4466742;32;34230;-72
2023/09/07 02:54:43;;;;;;;2.83;1.85;;;;;;;19.28;50.92;100259.62;4466683;32;34057;-72
2023/09/07 02:57:12;;;;;;;4.28;2.08;;;;;;;19.26;50.93;100265.25;4467733;32;33847;-71
2023/09/07 02:59:40;;;;;;;4.25;2.42;;;;;;;19.18;51.07;100264.31;4467673;32;33762;-71
2023/09/07 03:02:09;;;;;;;5.90;2.47;;;;;;;19.11;51.43;100264.09;4454564;32;31802;-70
2023/09/07 03:04:37;;;;;;;5.40;2.28;;;;;;;19.19;51.37;100264.13;4460938;32;33978;-70
2023/09/07 03:07:05;;;;;;;5.20;2.65;;;;;;;19.19;51.44;100261.44;4463646;32;35068;-70
2023/09/07 03:09:33;;;;;;;5.15;2.58;;;;;;;19.26;51.29;100264.34;4466779;32;34431;-71
2023/09/07 03:12:01;;;;;;;6.00;2.50;;;;;;;19.33;51.06;100260.03;4468277;32;34565;-71
2023/09/07 03:14:29;;;;;;;5.40;3.30;;;;;;;19.35;51.04;100262.56;4466338;32;34767;-71
2023/09/07 03:16:57;;;;;;;3.20;1.95;;;;;;;19.44;50.65;100261.63;4467409;32;33940;-71
2023/09/07 03:19:25;;;;;;;2.65;1.92;;;;;;;19.45;50.42;100264.16;4467119;32;34022;-71
2023/09/07 03:21:53;;;;;;;3.37;2.10;;;;;;;19.45;50.25;100266.88;4460648;32;33206;-70
2023/09/07 03:24:21;;;;;;;2.90;2.10;;;;;;;19.49;50.03;100259.28;4462029;32;33844;-74
2023/09/07 03:26:49;;;;;;;5.45;2.40;;;;;;;19.52;49.99;100258.97;4466633;32;33640;-73
2023/09/07 03:29:17;;;;;;;4.68;2.20;;;;;;;19.44;50.15;100265.19;4468709;32;33549;-72
2023/09/07 03:31:45;;;;;;;3.85;2.12;;;;;;;19.43;50.06;100265.34;4465303;32;33144;-71
2023/09/07 03:34:13;;;;;;;5.25;2.15;;;;;;;19.34;50.31;100266.31;4465313;32;34651;-70
2023/09/07 03:36:42;;;;;;;5.97;2.90;;;;;;;19.36;50.20;100264.25;4455539;32;33969;-75
2023/09/07 03:39:09;;;;;;;4.28;1.90;;;;;;;19.24;50.50;100266.41;4467661;32;34630;-75
2023/09/07 03:41:37;;;;;;;4.97;2.72;;;;;;;19.26;50.55;100265.25;4466840;32;34122;-75
2023/09/07 03:44:06;;;;;;;4.70;2.50;;;;;;;18.99;51.13;100268.06;4465466;32;33621;-73
2023/09/07 03:46:33;;;;;;;4.85;2.65;;;;;;;18.84;51.70;100270.44;4466739;32;34194;-73
2023/09/07 03:49:02;;;;;;;4.60;2.33;;;;;;;18.81;52.00;100262.62;4466284;32;35043;-72
2023/09/07 03:51:30;;;;;;;4.57;2.05;;;;;;;18.80;51.82;100259.06;4465771;32;34225;-73
2023/09/07 03:53:59;;;;;;;2.70;1.55;;;;;;;18.98;51.29;100267.22;4459378;32;34829;-73
2023/09/07 03:56:26;;;;;;;2.25;1.60;;;;;;;18.90;51.57;100267.13;4458661;32;35028;-73
2023/09/07 03:58:54;;;;;;;5.82;2.97;;;;;;;18.91;51.54;100270.69;4464607;32;34926;-71
2023/09/07 04:01:22;;;;;;;2.75;1.70;;;;;;;18.92;51.37;100267.81;4461964;32;33436;-69
2023/09/07 04:03:50;;;;;;;4.80;2.05;;;;;;;18.80;51.59;100278.03;4466795;32;33803;-70
2023/09/07 04:06:19;;;;;;;4.32;2.17;;;;;;;19.02;50.99;100278.59;4464989;32;34839;-70
2023/09/07 04:08:46;;;;;;;4.93;2.03;;;;;;;18.99;51.06;100281.63;4466025;32;33876;-70
2023/09/07 04:11:14;;;;;;;6.40;3.15;;;;;;;18.95;51.15;100274.81;4467033;32;34059;-70
2023/09/07 04:13:42;;;;;;;2.83;1.75;;;;;;;18.92;51.20;100278.69;4464118;32;33594;-70
2023/09/07 04:16:10;;;;;;;7.50;4.03;;;;;;;18.87;51.48;100274.72;4467086;32;34108;-70
2023/09/07 04:18:38;;;;;;;4.55;2.75;;;;;;;18.71;51.84;100272.66;4467196;32;33573;-70
2023/09/07 04:21:06;;;;;;;3.83;2.17;;;;;;;18.74;51.77;100275.94;4467421;32;34190;-70
2023/09/07 04:23:35;;;;;;;6.45;3.08;;;;;;;18.84;51.37;100279.47;4466214;32;35432;-70
2023/09/07 04:26:06;;;;;;;4.15;1.77;;;;;;;18.83;51.28;100283.16;4467333;32;32377;-71
2023/09/07 04:28:34;;;;;;;2.97;1.17;;;;;;;18.90;51.07;100280.69;4466816;32;33611;-70
2023/09/07 04:31:03;;;;;;;3.83;1.75;;;;;;;18.92;51.08;100283.25;4464902;32;32912;-70
2023/09/07 04:33:34;;;;;;;7.18;2.00;;;;;;;18.86;51.27;100276.59;4466492;32;33788;-73
2023/09/07 04:36:09;;;;;;;3.95;1.98;;;;;;;18.96;51.12;100279.22;4466364;32;33771;-72
2023/09/07 04:38:37;;;;;;;;;;;;;;;18.78;51.64;100279.19;4466726;32;33449;-73
2023/09/07 04:41:09;;;;;;;3.55;1.73;;;;;;;18.87;51.60;100278.28;4467300;32;32946;-70
2023/09/07 04:43:40;;;;;;;2.67;2.03;;;;;;;18.92;51.50;100294.09;4467569;32;34087;-72
2023/09/07 04:46:08;;;;;;;3.72;1.60;;;;;;;19.13;50.95;100280.19;4458978;32;34189;-72
2023/09/07 04:48:36;;;;;;;6.75;3.53;;;;;;;19.23;50.82;100278.25;4454603;32;33881;-73
2023/09/07 04:51:08;;;;;;;4.35;2.33;;;;;;;19.10;51.07;100284.09;4463286;32;35029;-72
2023/09/07 04:53:37;;;;;;;2.97;1.80;;;;;;;19.31;50.62;100284.59;4464805;32;34873;-73
2023/09/07 04:56:06;;;;;;;9.02;3.00;;;;;;;19.35;50.51;100284.28;4466495;32;33835;-73
2023/09/07 04:58:34;;;;;;;2.30;1.40;;;;;;;19.49;50.21;100281.00;4458167;32;34779;-72
2023/09/07 05:01:08;;;;;;;2.25;1.55;;;;;;;19.63;50.18;100285.84;4455017;32;32819;-72
2023/09/07 05:03:38;;;;;;;8.63;4.25;;;;;;;19.73;49.95;100277.63;4465868;32;33557;-72
2023/09/07 05:06:06;;;;;;;4.75;2.15;;;;;;;19.83;49.82;100282.94;4467169;32;34441;-73
2023/09/07 05:08:34;;;;;;;6.37;2.50;;;;;;;19.89;49.62;100282.28;4466874;32;35162;-73
2023/09/07 05:11:03;;;;;;;4.18;2.00;;;;;;;20.02;49.55;100283.53;4467730;32;34231;-72
2023/09/07 05:13:31;;;;;;;5.05;2.55;;;;;;;20.50;48.69;100286.59;4468269;32;33620;-72
2023/09/07 05:16:01;;;;;;;4.95;2.33;;;;;;;21.00;47.27;100283.00;4467814;32;33880;-72
2023/09/07 05:18:30;;;;;;;8.75;2.60;;;;;;;21.31;46.47;100287.75;4465635;32;33908;-72
2023/09/07 05:20:58;;;;;;;7.28;2.45;;;;;;;21.53;46.28;100292.50;4468276;32;34405;-72
2023/09/07 05:23:26;;;;;;;6.15;2.67;;;;;;;22.14;44.58;100292.88;4467175;32;34375;-72
2023/09/07 05:25:55;;;;;;;9.73;3.20;;;;;;;22.82;42.79;100296.78;4467619;32;34216;-72
2023/09/07 05:28:23;;;;;;;5.78;2.75;;;;;;;22.52;43.63;100290.34;4468154;32;33679;-71
2023/09/07 05:30:51;;;;;;;8.98;2.85;;;;;;;22.24;44.50;100299.00;4468066;32;33035;-72
2023/09/07 05:33:20;;;;;;;4.68;2.53;;;;;;;22.16;44.81;100295.47;4466071;32;33658;-72
2023/09/07 05:35:48;;;;;;;5.45;2.67;;;;;;;22.21;45.01;100290.31;4467004;32;34888;-71
2023/09/07 05:38:16;;;;;;;4.28;2.53;;;;;;;22.10;45.28;100300.56;4464917;32;34263;-71
2023/09/07 05:40:44;;;;;;;6.53;3.33;;;;;;;21.79;47.04;100305.06;4466564;32;33172;-71
2023/09/07 05:43:12;;;;;;;5.75;2.12;;;;;;;21.91;46.34;100292.78;4463734;32;33899;-72
2023/09/07 05:45:40;;;;;;;6.12;2.35;;;;;;;21.91;46.31;100297.38;4467409;32;33936;-71
2023/09/07 05:48:09;;;;;;;9.32;2.75;;;;;;;22.01;46.18;100308.94;4466530;32;33594;-71
2023/09/07 05:50:37;;;;;;;3.78;2.22;;;;;;;22.22;45.51;100305.66;4463943;32;34179;-71
2023/09/07 05:53:05;;;;;;;6.75;2.80;;;;;;;22.74;44.60;100299.59;4467695;32;33955;-71
2023/09/07 05:55:33;;;;;;;4.25;2.20;;;;;;;23.52;42.85;100303.09;4467580;32;33929;-71
2023/09/07 05:58:06;;;;;;;5.60;2.62;;;;;;;23.84;42.22;100300.06;4468059;32;33791;-72
2023/09/07 06:00:35;;;;;;;4.45;2.15;;;;;;;23.68;42.12;100303.81;4459280;32;34193;-72
2023/09/07 06:03:04;;;;;;;6.30;2.87;;;;;;;23.60;42.50;100303.88;4466865;32;34844;-72
2023/09/07 06:05:33;;;;;;;9.45;2.95;;;;;;;23.65;42.16;100301.44;4466846;32;33740;-70
2023/09/07 06:08:01;;;;;;;8.27;2.80;;;;;;;23.63;42.59;100306.25;4467260;32;33877;-71
2023/09/07 06:10:30;;;;;;;3.67;1.70;;;;;;;23.66;42.75;100308.63;4466087;32;33186;-71
2023/09/07 06:12:58;;;;;;;3.70;2.00;;;;;;;23.64;43.46;100313.41;4468806;32;34081;-72
2023/09/07 06:15:29;;;;;;;6.07;3.03;;;;;;;23.63;43.02;100314.44;4463497;32;33768;-71
2023/09/07 06:17:57;;;;;;;4.75;2.65;;;;;;;23.62;43.40;100314.63;4463639;32;33917;-72
2023/09/07 06:20:25;;;;;;;5.50;3.00;;;;;;;23.72;43.09;100317.97;4463926;32;33819;-72
2023/09/07 06:22:54;;;;;;;6.15;2.60;;;;;;;23.71;42.99;100319.00;4462596;32;35409;-71
2023/09/07 06:25:22;;;;;;;4.22;2.30;;;;;;;23.69;42.93;100316.47;4469158;32;34013;-70
2023/09/07 06:27:50;;;;;;;6.05;3.10;;;;;;;22.86;43.49;100320.00;4468615;32;33965;-73
2023/09/07 06:30:18;;;;;;;4.93;2.85;;;;;;;23.24;43.47;100322.78;4468290;32;34378;-73
2023/09/07 06:32:48;;;;;;;5.03;3.05;;;;;;;23.27;43.37;100322.44;4460592;32;34973;-74
2023/09/07 06:35:18;;;;;;;6.80;3.05;;;;;;;23.39;42.03;100320.97;4461165;32;34918;-73
2023/09/07 06:37:46;;;;;;;7.97;3.30;;;;;;;23.45;42.61;100328.44;4468276;32;33599;-74
2023/09/07 06:40:15;;;;;;;6.10;2.97;;;;;;;23.47;43.53;100328.25;4469312;32;32966;-73
2023/09/07 06:42:44;;;;;;;7.35;3.00;;;;;;;23.69;42.64;100323.78;4466776;32;34711;-73
2023/09/07 06:45:12;;;;;;;9.25;2.67;;;;;;;23.70;43.29;100325.50;4468726;32;35169;-74
2023/09/07 06:47:41;;;;;;;6.65;3.10;;;;;;;23.48;43.06;100329.94;4468087;32;33812;-74
2023/09/07 06:50:09;;;;;;;18.83;3.40;;;;;;;23.36;43.66;100329.53;4466467;32;32152;-74
2023/09/07 06:52:37;;;;;;;5.12;2.72;;;;;;;23.37;44.29;100333.09;4463227;32;33472;-74
2023/09/07 06:55:06;;;;;;;7.78;2.17;;;;;;;23.44;44.41;100329.47;4466650;32;33992;-74
2023/09/07 06:57:34;;;;;;;6.72;3.40;;;;;;;23.86;43.69;100330.81;4464436;32;33600;-74
2023/09/07 07:00:05;;;;;;;6.12;2.25;;;;;;;23.29;44.23;100339.50;4463917;32;34311;-74
2023/09/07 07:02:34;;;;;;;5.35;2.50;;;;;;;23.44;43.38;100331.38;4461272;32;34194;-74
2023/09/07 07:08:39;;;;;;;4.60;3.15;;;;;;;23.52;43.96;100342.19;4465795;32;33727;-74
2023/09/07 07:11:07;;;;;;;4.72;2.42;;;;;;;23.69;44.17;100346.53;4462765;32;33156;-74
2023/09/07 07:13:36;;;;;;;7.78;3.20;;;;;;;23.50;44.54;100344.28;4467083;32;33883;-75
2023/09/07 07:16:05;;;;;;;8.48;3.78;;;;;;;23.45;43.93;100341.25;4467673;32;35287;-75
2023/09/07 07:18:33;;;;;;;7.60;4.05;;;;;;;22.98;44.31;100350.47;4466345;32;33917;-75
2023/09/07 07:21:00;;;;;;;5.32;2.67;;;;;;;23.11;43.70;100338.94;4466439;32;34615;-73
2023/09/07 07:23:28;;;;;;;6.97;2.87;;;;;;;23.27;44.26;100344.28;4459063;32;33367;-73
2023/09/07 07:25:56;;;;;;;8.57;2.45;;;;;;;23.52;43.39;100333.16;4460015;32;33727;-74
2023/09/07 07:28:24;;;;;;;7.57;3.20;;;;;;;23.77;43.38;100344.75;4462946;32;34573;-74
2023/09/07 07:30:53;;;;;;;6.62;2.75;;;;;;;23.80;42.94;100347.12;4462391;32;32965;-74
2023/09/07 07:33:21;;;;;;;5.10;2.65;;;;;;;23.74;43.16;100354.16;4465267;32;33866;-73
2023/09/07 07:35:51;;;;;;;5.85;3.03;;;;;;;23.73;43.30;100347.00;4463503;32;34207;-73
2023/09/07 07:38:19;;;;;;;5.53;2.58;;;;;;;23.82;43.11;100348.63;4465214;32;34241;-72
2023/09/07 07:40:47;;;;;;;9.20;4.15;;;;;;;23.66;43.79;100354.22;4466633;32;33157;-72
2023/09/07 07:43:15;;;;;;;7.30;3.15;;;;;;;24.03;43.62;100347.88;4457237;32;33720;-74
2023/09/07 07:45:43;;;;;;;5.62;2.65;;;;;;;24.31;43.41;100355.44;4464436;32;34957;-74
2023/09/07 07:48:11;;;;;;;5.93;2.97;;;;;;;24.50;42.88;100348.56;4457335;32;33967;-75
2023/09/07 07:50:40;;;;;;;5.82;2.67;;;;;;;24.64;41.86;100356.75;4463325;32;33315;-73
2023/09/07 07:53:08;;;;;;;5.95;3.25;;;;;;;24.36;42.55;100351.06;4457913;32;33830;-70
2023/09/07 07:55:40;;;;;;;8.45;3.90;;;;;;;24.58;41.40;100352.03;4456296;32;34644;-70
2023/09/07 07:58:09;;;;;;;8.02;4.57;;;;;;;24.66;41.50;100353.00;4459670;32;34809;-71
2023/09/07 08:00:38;;;;;;;5.72;2.80;;;;;;;24.87;41.34;100358.50;4457048;32;34180;-71
2023/09/07 08:03:06;;;;;;;7.75;3.40;;;;;;;25.02;41.61;100350.25;4459609;32;34019;-71
2023/09/07 08:05:35;;;;;;;7.30;3.53;;;;;;;24.84;41.77;100354.25;4457219;32;35146;-72
2023/09/07 08:08:03;;;;;;;5.87;3.05;;;;;;;25.08;41.03;100353.06;4455313;32;33914;-71
2023/09/07 08:10:36;;;;;;;8.15;4.20;;;;;;;25.09;41.21;100356.63;4459566;32;34581;-71
2023/09/07 08:13:04;;;;;;;8.70;3.65;;;;;;;25.38;39.98;100352.94;4462383;32;33712;-70
2023/09/07 08:15:33;;;;;;;7.97;3.20;;;;;;;25.23;40.43;100344.81;4460279;32;35101;-71
2023/09/07 08:18:01;;;;;;;6.22;3.53;;;;;;;24.99;41.13;100347.88;4461077;32;33453;-71
2023/09/07 08:20:29;;;;;;;7.03;3.17;;;;;;;25.14;40.60;100356.94;4458632;32;33352;-74
2023/09/07 08:22:58;;;;;;;6.68;3.80;;;;;;;25.07;41.05;100354.09;4454657;32;34015;-74
2023/09/07 08:25:27;;;;;;;7.53;4.12;;;;;;;25.54;40.36;100349.94;4460650;32;33935;-74
2023/09/07 08:27:57;;;;;;;6.03;3.62;;;;;;;25.36;40.80;100345.97;4458318;32;33753;-77
2023/09/07 08:30:25;;;;;;;6.62;2.83;;;;;;;25.63;40.19;100344.31;4459742;32;32936;-75
2023/09/07 08:32:53;;;;;;;6.65;3.60;;;;;;;25.17;40.21;100347.47;4465038;32;33518;-70
2023/09/07 08:35:26;;;;;;;5.97;3.37;;;;;;;24.99;41.52;100350.62;4463268;32;35316;-74
2023/09/07 08:37:57;;;;;;;5.93;2.78;;;;;;;25.42;39.81;100345.19;4461299;32;35187;-74
2023/09/07 08:40:27;;;;;;;7.50;3.83;;;;;;;25.60;40.02;100344.72;4464326;32;33068;-73
2023/09/07 08:42:55;;;;;;;8.23;3.37;;;;;;;25.61;40.17;100341.75;4456512;32;33686;-73
2023/09/07 08:45:25;;;;;;;7.57;3.65;;;;;;;25.38;40.90;100339.25;4460374;32;34147;-75
2023/09/07 08:47:54;;;;;;;6.07;3.20;;;;;;;25.65;40.83;100329.38;4426732;32;34819;-75
2023/09/07 08:50:23;;;;;;;9.98;3.17;;;;;;;26.02;39.34;100341.87;4426905;32;32975;-74
2023/09/07 08:52:52;;;;;;;6.50;3.35;;;;;;;25.65;39.34;100344.94;4431378;32;34919;-78
2023/09/07 08:55:20;;;;;;;8.00;3.28;;;;;;;26.02;39.46;100330.91;4423098;32;35540;-78
2023/09/07 08:57:48;;;;;;;7.35;4.03;;;;;;;26.14;38.62;100327.63;4427555;32;33737;-77
2023/09/07 09:00:16;;;;;;;11.07;4.75;;;;;;;25.83;39.94;100325.31;4417975;32;33281;-80
2023/09/07 09:02:46;;;;;;;5.18;3.17;;;;;;;26.19;39.42;100320.47;4382846;32;34802;-75
2023/09/07 09:05:24;;;;;;;9.73;3.37;;;;;;;26.04;38.68;100325.25;4387727;32;33889;-75
2023/09/07 09:08:06;;;;;;;6.50;3.97;;;;;;;26.29;38.67;100322.84;4383639;32;33599;-75
2023/09/07 09:10:39;;;;;;;6.22;3.20;;;;;;;26.20;38.86;100324.91;4382984;32;34194;-75
2023/09/07 09:13:07;;;;;;;6.07;3.22;;;;;;;26.39;38.71;100327.97;4385860;32;33851;-74
2023/09/07 09:15:34;;;;;;;6.65;3.22;;;;;;;26.62;38.37;100313.97;4385804;32;33588;-75
2023/09/07 09:18:11;;;;;;;8.75;3.58;;;;;;;26.54;37.41;100320.44;4386290;32;32403;-75
2023/09/07 09:20:39;;;;;;;7.40;3.58;;;;;;;26.56;37.10;100320.25;4400919;32;33077;-75
2023/09/07 09:23:07;;;;;;;10.15;3.45;;;;;;;26.18;37.43;100315.19;4394058;32;33736;-75
2023/09/07 09:25:35;;;;;;;5.60;3.10;;;;;;;26.58;37.85;100313.53;4397606;32;35235;-75
2023/09/07 09:28:03;;;;;;;6.78;3.83;;;;;;;26.71;37.05;100309.97;4398220;32;34264;-75
2023/09/07 09:30:30;;;;;;;7.28;3.67;;;;;;;26.33;37.62;100315.06;4395108;32;33841;-75
2023/09/07 09:32:58;;;;;;;9.73;3.60;;;;;;;26.29;37.72;100311.84;4404964;32;33678;-75
2023/09/07 09:35:26;;;;;;;7.60;3.35;;;;;;;26.68;35.66;100308.47;4462753;32;35148;-75
2023/09/07 09:37:54;;;;;;;7.55;3.58;;;;;;;26.68;37.28;100307.66;4464688;32;35256;-74
2023/09/07 09:40:22;;;;;;;8.85;3.92;;;;;;;26.71;36.18;100309.97;4456958;32;33501;-75
2023/09/07 09:42:52;;;;;;;6.43;3.58;;;;;;;26.83;35.64;100304.72;4458413;32;32723;-75
2023/09/07 09:45:20;;;;;;;9.38;3.17;;;;;;;26.94;35.01;100304.97;4462195;32;33706;-75
2023/09/07 09:47:51;;;;;;;4.97;2.85;;;;;;;26.83;35.37;100299.22;4432409;32;34075;-75
2023/09/07 09:50:20;;;;;;;7.93;3.47;;;;;;;26.80;35.60;100302.38;4415965;32;33340;-75
2023/09/07 09:52:48;;;;;;;10.05;3.22;;;;;;;26.69;36.02;100307.41;4423654;32;33819;-76
2023/09/07 09:55:16;;;;;;;5.72;3.35;;;;;;;26.92;35.47;100304.31;4429313;32;34038;-74
2023/09/07 09:57:44;;;;;;;9.65;3.90;;;;;;;27.02;35.51;100301.16;4419384;32;33786;-74
2023/09/07 10:00:25;;;;;;;6.72;3.83;;;;;;;27.04;35.78;100301.81;4426608;32;32763;-75
2023/09/07 10:03:04;;;;;;;7.07;3.47;;;;;;;26.95;34.26;100303.06;4428377;32;33740;-75
2023/09/07 10:05:33;;;;;;;9.50;4.03;;;;;;;27.27;34.93;100306.09;4412782;32;34093;-75
2023/09/07 10:08:08;;;;;;;6.53;3.08;;;;;;;26.97;34.32;100300.09;4415126;32;33300;-75
2023/09/07 10:10:36;;;;;;;;;;;;;;;27.36;33.17;100302.09;4434311;32;33936;-75
2023/09/07 10:13:05;;;;;;;7.30;3.12;;;;;;;27.22;34.16;100303.97;4428885;32;34078;-75
2023/09/07 10:15:35;;;;;;;8.32;3.17;;;;;;;27.37;33.78;100296.38;4431338;32;33879;-75
2023/09/07 10:18:08;;;;;;;5.32;3.00;;;;;;;27.25;34.33;100292.53;4433923;32;34653;-75
2023/09/07 10:20:55;;;;;;;6.75;2.75;;;;;;;27.70;32.33;100289.16;4463251;32;34108;-75
2023/09/07 10:23:23;;;;;;;6.62;3.05;;;;;;;27.81;32.97;100291.31;4462047;32;32503;-76
2023/09/07 10:25:52;;;;;;;7.82;3.00;;;;;;;27.78;31.94;100291.72;4463237;32;33870;-76
2023/09/07 10:28:25;;;;;;;11.63;3.30;;;;;;;27.73;31.90;100289.56;4465899;32;33196;-75
2023/09/07 10:31:18;;;;;;;7.47;3.95;;;;;;;27.74;31.84;100291.28;4464668;32;33101;-76
2023/09/07 10:33:46;;;;;;;8.80;3.78;;;;;;;27.81;31.87;100292.16;4464571;32;33904;-76
2023/09/07 10:36:27;;;;;;;6.20;3.08;;;;;;;27.91;32.65;100283.44;4461007;32;33645;-76
2023/09/07 10:38:56;;;;;;;6.75;3.35;;;;;;;28.14;31.46;100285.72;4467061;32;34666;-76
2023/09/07 10:41:24;;;;;;;7.03;3.62;;;;;;;28.07;31.18;100277.47;4461711;32;34528;-74
2023/09/07 10:43:54;;;;;;;5.78;2.95;;;;;;;28.47;31.46;100279.25;4463265;32;33572;-74
2023/09/07 10:46:23;;;;;;;6.72;3.25;;;;;;;27.90;31.60;100281.78;4466907;32;33645;-72
2023/09/07 10:48:52;;;;;;;5.50;2.92;;;;;;;28.19;31.90;100274.06;4465922;32;33977;-72
2023/09/07 10:51:20;;;;;;;7.43;2.97;;;;;;;28.49;31.59;100272.47;4468331;32;33349;-72
2023/09/07 10:53:47;;;;;;;6.68;3.28;;;;;;;28.26;32.55;100274.87;4459128;32;33938;-72
2023/09/07 10:56:15;;;;;;;5.90;3.42;;;;;;;28.22;31.49;100265.34;4457108;32;33923;-72
2023/09/07 10:58:43;;;;;;;8.15;3.97;;;;;;;28.33;31.74;100267.44;4460879;32;33781;-72
2023/09/07 11:01:11;;;;;;;6.37;4.00;;;;;;;28.69;31.29;100271.53;4461692;32;34528;-72
2023/09/07 11:03:42;;;;;;;8.48;3.33;;;;;;;28.50;30.02;100267.81;4462291;32;33486;-73
2023/09/07 11:06:20;;;;;;;9.15;3.87;;;;;;;28.32;30.72;100265.75;4460212;32;35120;-73
2023/09/07 11:08:51;;;;;;;5.87;2.87;;;;;;;28.86;30.50;100261.69;4420240;32;33776;-74
2023/09/07 11:11:19;;;;;;;5.70;3.35;;;;;;;28.45;31.29;100254.72;4421312;32;33365;-74
2023/09/07 11:13:47;;;;;;;5.97;3.00;;;;;;;28.59;30.22;100260.16;4423059;32;34487;-74
2023/09/07 11:16:17;;;;;;;7.30;4.75;;;;;;;28.42;30.20;100257.06;4424029;32;34036;-73
2023/09/07 11:18:47;;;;;;;5.60;3.37;;;;;;;28.43;30.58;100254.06;4430894;32;34876;-71
2023/09/07 11:21:15;;;;;;;6.25;3.70;;;;;;;28.73;30.14;100248.84;4432084;32;34428;-71
2023/09/07 11:23:44;;;;;;;6.40;3.60;;;;;;;28.97;29.25;100249.94;4419293;32;33808;-72
2023/09/07 11:26:12;;;;;;;6.37;3.53;;;;;;;29.21;29.04;100247.44;4417055;32;33155;-73
2023/09/07 11:28:40;;;;;;;6.75;3.20;;;;;;;28.98;29.36;100248.03;4418535;32;33985;-72
2023/09/07 11:31:08;;;;;;;6.62;3.37;;;;;;;28.57;30.07;100238.31;4416371;32;34494;-75
2023/09/07 11:33:36;;;;;;;6.90;4.32;;;;;;;28.95;29.60;100240.19;4414920;32;33702;-73
2023/09/07 11:36:04;;;;;;;6.05;3.75;;;;;;;28.96;30.24;100236.41;4418001;32;33829;-72
2023/09/07 11:38:36;;;;;;;6.80;3.60;;;;;;;29.01;29.70;100236.59;4418322;32;33667;-73